Time,TemperatureF,DewpointF,PressureIn,WindDirection,WindDirectionDegrees,WindSpeedMPH,WindSpeedGustMPH,Humidity,HourlyPrecipIn,Conditions,Clouds,dailyrainin,SolarRadiationWatts/m^2,SoftwareType,DateUTC
2013-11-16 00:01:00,35.0,26.0,-100.00,ESE,117,0.0,0.0,70,0.00,,,0.00,0.000000,,2013-11-16 05:01:00,
2013-11-16 00:44:00,35.0,26.0,-100.00,ESE,117,0.0,0.0,70,0.00,,,0.00,0.000000,,2013-11-16 05:44:00,
2013-11-16 00:53:00,35.0,26.0,-100.00,ESE,117,0.0,0.0,70,0.00,,,0.00,0.000000,,2013-11-16 05:53:00,
2013-11-16 01:01:00,34.0,26.0,-100.00,ESE,104,0.0,1.0,71,0.00,,,0.00,0.000000,,2013-11-16 06:01:00,
2013-11-16 01:42:00,34.0,26.0,-100.00,ESE,104,0.0,1.0,71,0.00,,,0.00,0.000000,,2013-11-16 06:42:00,
2013-11-16 01:52:00,34.0,26.0,-100.00,ESE,104,0.0,1.0,71,0.00,,,0.00,0.000000,,2013-11-16 06:52:00,
2013-11-16 02:01:00,35.0,26.0,-100.00,SSE,150,0.0,1.0,69,0.00,,,0.00,0.000000,,2013-11-16 07:01:00,
2013-11-16 02:22:00,35.0,26.0,-100.00,SSE,150,0.0,1.0,69,0.00,,,0.00,0.000000,,2013-11-16 07:22:00,
2013-11-16 02:33:00,35.0,26.0,-100.00,SSE,150,0.0,1.0,69,0.00,,,0.00,0.000000,,2013-11-16 07:33:00,
2013-11-16 02:42:00,35.0,26.0,-100.00,SSE,150,0.0,1.0,69,0.00,,,0.00,0.000000,,2013-11-16 07:42:00,
2013-11-16 02:52:00,35.0,26.0,-100.00,SSE,150,0.0,1.0,69,0.00,,,0.00,0.000000,,2013-11-16 07:52:00,
2013-11-16 03:01:00,36.0,25.0,-100.00,NW,318,0.0,0.0,65,0.00,,,0.00,0.000000,,2013-11-16 08:01:00,
2013-11-16 03:22:00,36.0,25.0,-100.00,NW,318,0.0,0.0,65,0.00,,,0.00,0.000000,,2013-11-16 08:22:00,
2013-11-16 03:32:00,36.0,25.0,-100.00,NW,318,0.0,0.0,65,0.00,,,0.00,0.000000,,2013-11-16 08:32:00,
2013-11-16 03:42:00,36.0,25.0,-100.00,NW,318,0.0,0.0,65,0.00,,,0.00,0.000000,,2013-11-16 08:42:00,
2013-11-16 03:52:00,36.0,25.0,-100.00,NW,318,0.0,0.0,65,0.00,,,0.00,0.000000,,2013-11-16 08:52:00,
2013-11-16 04:01:00,36.0,26.0,-100.00,East,97,0.0,1.0,66,0.00,,,-99.99,0.000000,,2013-11-16 09:01:00,
2013-11-16 04:43:00,36.0,26.0,-100.00,East,97,0.0,1.0,66,0.00,,,-99.99,0.000000,,2013-11-16 09:43:00,
2013-11-16 04:53:00,36.0,26.0,-100.00,East,97,0.0,1.0,66,0.00,,,-99.99,0.000000,,2013-11-16 09:53:00,
2013-11-16 05:01:00,35.0,26.0,-100.00,ESE,119,0.0,3.0,70,0.00,,,0.00,0.000000,,2013-11-16 10:01:00,
2013-11-16 05:43:00,35.0,26.0,-100.00,ESE,119,0.0,3.0,70,0.00,,,0.00,0.000000,,2013-11-16 10:43:00,
2013-11-16 05:52:00,35.0,26.0,-100.00,ESE,119,0.0,3.0,70,0.00,,,0.00,0.000000,,2013-11-16 10:52:00,
2013-11-16 06:01:00,36.0,27.0,-100.00,ESE,120,0.0,1.0,70,0.00,,,0.00,0.000000,,2013-11-16 11:01:00,
2013-11-16 06:42:00,36.0,27.0,-100.00,ESE,120,0.0,1.0,70,0.00,,,0.00,0.000000,,2013-11-16 11:42:00,
2013-11-16 06:53:00,36.0,27.0,-100.00,ESE,120,0.0,1.0,70,0.00,,,0.00,0.000000,,2013-11-16 11:53:00,
2013-11-16 07:01:00,37.0,28.0,-100.00,SE,128,0.0,1.0,69,0.00,,,0.00,0.000000,,2013-11-16 12:01:00,
2013-11-16 07:42:00,37.0,28.0,-100.00,SE,128,0.0,1.0,69,0.00,,,0.00,0.000000,,2013-11-16 12:42:00,
2013-11-16 07:52:00,37.0,28.0,-100.00,SE,128,0.0,1.0,69,0.00,,,0.00,0.000000,,2013-11-16 12:52:00,
2013-11-16 08:01:00,39.0,29.0,-100.00,NNE,25,0.0,2.0,66,0.00,,,0.00,18.000000,,2013-11-16 13:01:00,
2013-11-16 08:42:00,39.0,29.0,-100.00,NNE,25,0.0,2.0,66,0.00,,,0.00,18.000000,,2013-11-16 13:42:00,
2013-11-16 08:52:00,39.0,29.0,-100.00,NNE,25,0.0,2.0,66,0.00,,,0.00,18.000000,,2013-11-16 13:52:00,
2013-11-16 09:01:00,49.0,27.0,-100.00,South,182,2.0,7.0,43,0.00,,,0.00,151.000000,,2013-11-16 14:01:00,
2013-11-16 09:42:00,49.0,27.0,-100.00,South,182,2.0,7.0,43,0.00,,,0.00,151.000000,,2013-11-16 14:42:00,
2013-11-16 09:52:00,49.0,27.0,-100.00,South,182,2.0,7.0,43,0.00,,,0.00,151.000000,,2013-11-16 14:52:00,
2013-11-16 10:01:00,52.0,30.0,-100.00,WSW,242,1.0,8.0,42,0.00,,,0.00,175.000000,,2013-11-16 15:01:00,
2013-11-16 10:43:00,52.0,30.0,-100.00,WSW,242,1.0,8.0,42,0.00,,,0.00,175.000000,,2013-11-16 15:43:00,
2013-11-16 10:54:00,52.0,30.0,-100.00,WSW,242,1.0,8.0,42,0.00,,,0.00,175.000000,,2013-11-16 15:54:00,
2013-11-16 11:01:00,53.0,30.0,-100.00,SW,222,3.0,10.0,41,0.00,,,0.00,189.000000,,2013-11-16 16:01:00,
2013-11-16 11:23:00,53.0,30.0,-100.00,SW,222,3.0,10.0,41,0.00,,,0.00,189.000000,,2013-11-16 16:23:00,
2013-11-16 11:33:00,53.0,30.0,-100.00,SW,222,3.0,10.0,41,0.00,,,0.00,189.000000,,2013-11-16 16:33:00,
2013-11-16 11:43:00,53.0,30.0,-100.00,SW,222,3.0,10.0,41,0.00,,,0.00,189.000000,,2013-11-16 16:43:00,
2013-11-16 11:53:00,53.0,30.0,-100.00,SW,222,3.0,10.0,41,0.00,,,0.00,189.000000,,2013-11-16 16:53:00,
2013-11-16 12:01:00,56.0,31.0,-100.00,WSW,237,3.0,10.0,39,0.00,,,0.00,303.000000,,2013-11-16 17:01:00,
2013-11-16 12:43:00,56.0,31.0,-100.00,WSW,237,3.0,10.0,39,0.00,,,0.00,303.000000,,2013-11-16 17:43:00,
2013-11-16 12:52:00,56.0,31.0,-100.00,WSW,237,3.0,10.0,39,0.00,,,0.00,303.000000,,2013-11-16 17:52:00,
2013-11-16 13:01:00,58.0,31.0,-100.00,WSW,243,3.0,10.0,35,0.00,,,0.00,328.000000,,2013-11-16 18:01:00,
2013-11-16 13:42:00,58.0,31.0,-100.00,WSW,243,3.0,10.0,35,0.00,,,0.00,328.000000,,2013-11-16 18:42:00,
2013-11-16 13:52:00,58.0,31.0,-100.00,WSW,243,3.0,10.0,35,0.00,,,0.00,328.000000,,2013-11-16 18:52:00,
2013-11-16 14:01:00,59.0,30.0,-100.00,WSW,247,3.0,8.0,33,0.00,,,0.00,328.000000,,2013-11-16 19:01:00,
2013-11-16 14:42:00,59.0,30.0,-100.00,WSW,247,3.0,8.0,33,0.00,,,0.00,328.000000,,2013-11-16 19:42:00,
2013-11-16 14:53:00,59.0,30.0,-100.00,WSW,247,3.0,8.0,33,0.00,,,0.00,328.000000,,2013-11-16 19:53:00,
2013-11-16 15:01:00,55.0,30.0,-100.00,WSW,241,2.0,9.0,38,0.00,,,0.00,150.000000,,2013-11-16 20:01:00,
2013-11-16 15:22:00,55.0,30.0,-100.00,WSW,241,2.0,9.0,38,0.00,,,0.00,150.000000,,2013-11-16 20:22:00,
2013-11-16 15:32:00,55.0,30.0,-100.00,WSW,241,2.0,9.0,38,0.00,,,0.00,150.000000,,2013-11-16 20:32:00,
2013-11-16 15:42:00,55.0,30.0,-100.00,WSW,241,2.0,9.0,38,0.00,,,0.00,150.000000,,2013-11-16 20:42:00,
2013-11-16 15:53:00,55.0,30.0,-100.00,WSW,241,2.0,9.0,38,0.00,,,0.00,150.000000,,2013-11-16 20:53:00,
2013-11-16 16:01:00,51.0,33.0,-100.00,East,97,0.0,6.0,49,0.00,,,0.00,29.000000,,2013-11-16 21:01:00,
2013-11-16 16:44:00,51.0,33.0,-100.00,East,97,0.0,6.0,49,0.00,,,0.00,29.000000,,2013-11-16 21:44:00,
2013-11-16 16:54:00,51.0,33.0,-100.00,East,97,0.0,6.0,49,0.00,,,0.00,29.000000,,2013-11-16 21:54:00,
2013-11-16 17:01:00,44.0,33.0,-100.00,NE,36,0.0,0.0,64,0.00,,,0.00,6.000000,,2013-11-16 22:01:00,
2013-11-16 17:24:00,44.0,33.0,-100.00,NE,36,0.0,0.0,64,0.00,,,0.00,6.000000,,2013-11-16 22:24:00,
2013-11-16 17:35:00,44.0,33.0,-100.00,NE,36,0.0,0.0,64,0.00,,,0.00,6.000000,,2013-11-16 22:35:00,
2013-11-16 17:42:00,44.0,33.0,-100.00,NE,36,0.0,0.0,64,0.00,,,0.00,6.000000,,2013-11-16 22:42:00,
2013-11-16 17:53:00,44.0,33.0,-100.00,NE,36,0.0,0.0,64,0.00,,,0.00,6.000000,,2013-11-16 22:53:00,
2013-11-16 18:01:00,40.0,32.0,-100.00,ESE,114,0.0,1.0,74,0.00,,,0.00,0.000000,,2013-11-16 23:01:00,
2013-11-16 18:43:00,40.0,32.0,-100.00,ESE,114,0.0,1.0,74,0.00,,,0.00,0.000000,,2013-11-16 23:43:00,
2013-11-16 18:53:00,40.0,32.0,-100.00,ESE,114,0.0,1.0,74,0.00,,,0.00,0.000000,,2013-11-16 23:53:00,
2013-11-16 19:01:00,38.0,31.0,-100.00,East,83,0.0,2.0,77,0.00,,,0.00,0.000000,,2013-11-17 00:01:00,
2013-11-16 19:22:00,38.0,31.0,-100.00,East,83,0.0,2.0,77,0.00,,,0.00,0.000000,,2013-11-17 00:22:00,
2013-11-16 19:32:00,38.0,31.0,-100.00,East,83,0.0,2.0,77,0.00,,,0.00,0.000000,,2013-11-17 00:32:00,
2013-11-16 19:42:00,38.0,31.0,-100.00,East,83,0.0,2.0,77,0.00,,,0.00,0.000000,,2013-11-17 00:42:00,
2013-11-16 19:52:00,38.0,31.0,-100.00,East,83,0.0,2.0,77,0.00,,,0.00,0.000000,,2013-11-17 00:52:00,
2013-11-16 20:01:00,37.0,31.0,-100.00,ENE,70,0.0,3.0,79,0.00,,,0.00,0.000000,,2013-11-17 01:01:00,
2013-11-16 20:42:00,37.0,31.0,-100.00,ENE,70,0.0,3.0,79,0.00,,,0.00,0.000000,,2013-11-17 01:42:00,
2013-11-16 20:52:00,37.0,31.0,-100.00,ENE,70,0.0,3.0,79,0.00,,,0.00,0.000000,,2013-11-17 01:52:00,
2013-11-16 21:01:00,35.0,31.0,-100.00,ENE,64,0.0,2.0,84,0.00,,,0.00,0.000000,,2013-11-17 02:01:00,
2013-11-16 21:42:00,35.0,31.0,-100.00,ENE,64,0.0,2.0,84,0.00,,,0.00,0.000000,,2013-11-17 02:42:00,
2013-11-16 21:52:00,35.0,31.0,-100.00,ENE,64,0.0,2.0,84,0.00,,,0.00,0.000000,,2013-11-17 02:52:00,
2013-11-16 22:01:00,-999.0,-99.9,-100.00,SE,142,0.0,1.0,-999,-99.99,,,-99.99,0.000000,,2013-11-17 03:01:00,
2013-11-16 22:44:00,34.0,30.0,-100.00,SE,142,0.0,1.0,85,0.00,,,0.00,0.000000,,2013-11-17 03:44:00,
2013-11-16 22:56:00,34.0,30.0,-100.00,SE,142,0.0,1.0,85,0.00,,,0.00,0.000000,,2013-11-17 03:56:00,
2013-11-16 23:01:00,32.0,29.0,-100.00,NNE,24,0.0,3.0,89,0.00,,,0.00,0.000000,,2013-11-17 04:01:00,
2013-11-16 23:24:00,32.0,29.0,-100.00,NNE,24,0.0,3.0,89,0.00,,,0.00,0.000000,,2013-11-17 04:24:00,
2013-11-16 23:35:00,32.0,29.0,-100.00,NNE,24,0.0,3.0,89,0.00,,,0.00,0.000000,,2013-11-17 04:35:00,
2013-11-16 23:43:00,32.0,29.0,-100.00,NNE,24,0.0,3.0,89,0.00,,,0.00,0.000000,,2013-11-17 04:43:00,
2013-11-16 23:53:00,32.0,29.0,-100.00,NNE,24,0.0,3.0,89,0.00,,,0.00,0.000000,,2013-11-17 04:53:00,